Time;durP1;ratioP1;P1;durP2;ratioP2;P2;SDS_P1;SDS_P2;PMS_P1;PMS_P2;Temp;Humidity;BMP_temperature;BMP_pressure;BME280_temperature;BME280_humidity;BME280_pressure;Samples;Min_cycle;Max_cycle;Signal;HPM_P1;HPM_P2
2023/08/10 00:02:41;;;;;;;6.40;3.15;;;16.30;98.20;;;;;;4983335;28;20049;-74
2023/08/10 00:05:27;;;;;;;5.75;2.67;;;16.30;98.30;;;;;;4988349;28;20466;-76
2023/08/10 00:08:13;;;;;;;6.18;2.88;;;16.30;98.40;;;;;;4991816;28;20042;-72
2023/08/10 00:10:59;;;;;;;7.28;2.70;;;16.30;98.50;;;;;;4990904;28;20046;-72
2023/08/10 00:13:45;;;;;;;6.85;3.28;;;16.30;98.50;;;;;;4994749;28;20131;-72
2023/08/10 00:16:33;;;;;;;4.68;2.90;;;16.30;98.60;;;;;;4996300;28;20054;-72
2023/08/10 00:19:18;;;;;;;4.82;2.85;;;16.20;98.60;;;;;;4990586;28;20104;-72
2023/08/10 00:22:05;;;;;;;7.78;3.72;;;16.20;98.70;;;;;;4969958;28;20237;-72
2023/08/10 00:24:51;;;;;;;4.80;2.60;;;16.20;98.80;;;;;;4989680;28;20049;-71
2023/08/10 00:27:38;;;;;;;6.30;2.78;;;16.20;98.90;;;;;;4972783;28;20050;-72
2023/08/10 00:30:24;;;;;;;6.22;3.42;;;16.10;99.00;;;;;;4977886;28;20042;-72
2023/08/10 00:33:10;;;;;;;6.22;3.03;;;16.10;99.00;;;;;;4991230;28;20050;-72
2023/08/10 00:35:56;;;;;;;5.22;2.78;;;16.10;99.10;;;;;;4981728;28;20038;-72
2023/08/10 00:38:42;;;;;;;4.60;2.60;;;16.10;99.20;;;;;;4991023;28;20049;-72
2023/08/10 00:41:28;;;;;;;4.95;2.80;;;16.10;99.30;;;;;;4987046;28;20132;-72
2023/08/10 00:44:16;;;;;;;4.47;2.47;;;16.10;99.30;;;;;;4991299;28;20056;-73
2023/08/10 00:47:02;;;;;;;4.60;2.60;;;16.10;99.40;;;;;;4988735;28;20093;-72
2023/08/10 00:49:48;;;;;;;4.28;2.70;;;16.20;99.50;;;;;;4990445;28;20046;-73
2023/08/10 00:52:34;;;;;;;4.40;2.22;;;16.10;99.50;;;;;;4972234;28;20034;-73
2023/08/10 00:55:21;;;;;;;4.80;2.38;;;16.20;99.60;;;;;;4978415;28;20038;-73
2023/08/10 00:58:07;;;;;;;4.28;2.72;;;16.20;99.70;;;;;;4993021;28;20043;-73
2023/08/10 01:00:53;;;;;;;4.10;2.58;;;16.20;99.70;;;;;;4988059;28;20455;-74
2023/08/10 01:03:39;;;;;;;5.70;2.30;;;16.20;99.80;;;;;;4989946;28;20053;-73
2023/08/10 01:06:55;;;;;;;5.20;2.53;;;16.20;99.90;;;;;;4990867;28;20058;-73
2023/08/10 01:09:52;;;;;;;6.03;2.97;;;16.20;99.90;;;;;;4987193;28;20039;-73
2023/08/10 01:12:49;;;;;;;7.78;2.40;;;16.20;99.90;;;;;;4973136;28;20405;-73
2023/08/10 01:15:43;;;;;;;6.43;2.78;;;16.20;99.90;;;;;;4979560;28;20054;-73
2023/08/10 01:18:29;;;;;;;5.95;2.70;;;16.20;99.90;;;;;;4989922;28;20065;-73
2023/08/10 01:21:37;;;;;;;3.33;2.40;;;16.10;99.90;;;;;;4988966;28;20034;-73
2023/08/10 01:24:31;;;;;;;4.75;2.42;;;16.10;99.90;;;;;;4991553;28;20039;-73
2023/08/10 01:27:18;;;;;;;4.47;2.60;;;16.20;99.90;;;;;;4990611;28;20056;-73
2023/08/10 01:30:07;;;;;;;3.63;2.35;;;16.20;99.90;;;;;;4972894;28;20553;-74
2023/08/10 01:32:53;;;;;;;4.50;2.33;;;16.20;99.90;;;;;;4990783;28;20073;-73
2023/08/10 01:35:39;;;;;;;4.22;2.63;;;16.10;99.90;;;;;;4988605;28;20073;-73
2023/08/10 11:42:04;;;;;;;4.10;1.40;;;22.20;81.10;;;;;;6173236;22;1291153;-72
2023/08/10 11:44:51;;;;;;;2.58;1.38;;;22.30;80.10;;;;;;6178741;23;20567;-72
2023/08/10 11:47:42;;;;;;;4.65;1.90;;;22.40;80.70;;;;;;6174930;23;20507;-73
2023/08/10 11:50:31;;;;;;;3.92;1.63;;;22.40;80.20;;;;;;6178141;23;20059;-73
2023/08/10 11:53:22;;;;;;;2.70;1.27;;;22.50;80.50;;;;;;6179250;23;20024;-73
2023/08/10 11:56:08;;;;;;;3.92;1.63;;;22.60;80.30;;;;;;6177740;23;20080;-72
2023/08/10 11:58:54;;;;;;;4.18;1.60;;;22.60;80.20;;;;;;6178989;23;20048;-72
2023/08/10 12:01:52;;;;;;;2.97;1.42;;;22.50;79.00;;;;;;6177510;23;20008;-72
2023/08/10 12:04:38;;;;;;;2.47;1.30;;;22.40;79.40;;;;;;6174044;23;20010;-73
2023/08/10 12:07:24;;;;;;;4.82;1.40;;;22.40;79.90;;;;;;6127037;23;20001;-73
2023/08/10 12:10:10;;;;;;;3.30;1.60;;;22.50;79.70;;;;;;6150872;23;20033;-72
2023/08/10 12:13:02;;;;;;;4.18;1.58;;;22.50;80.20;;;;;;6149638;23;20339;-73
2023/08/10 12:15:50;;;;;;;3.03;1.67;;;22.60;80.00;;;;;;6148412;23;20383;-72
2023/08/10 12:18:37;;;;;;;3.22;1.25;;;22.60;79.70;;;;;;6145449;23;20347;-73
2023/08/10 12:21:23;;;;;;;4.25;1.55;;;22.70;79.10;;;;;;6149897;23;20020;-72
2023/08/10 12:24:09;;;;;;;2.80;1.25;;;22.80;79.10;;;;;;6149641;23;20010;-73
2023/08/10 12:26:55;;;;;;;3.47;1.17;;;22.90;78.90;;;;;;6151063;23;20013;-74
2023/08/10 12:29:41;;;;;;;2.83;1.35;;;23.00;77.90;;;;;;6129238;23;20088;-73
2023/08/10 12:32:28;;;;;;;3.03;1.60;;;23.00;77.40;;;;;;6150432;23;20678;-73
2023/08/10 12:35:15;;;;;;;5.07;1.17;;;22.90;77.50;;;;;;6149914;23;20009;-73
2023/08/10 12:38:01;;;;;;;5.32;1.70;;;22.90;76.70;;;;;;6150077;23;20021;-72
2023/08/10 12:40:47;;;;;;;3.72;1.30;;;22.90;76.80;;;;;;6150542;23;20486;-72
2023/08/10 12:43:33;;;;;;;3.28;1.52;;;23.00;77.60;;;;;;6151294;23;20025;-72
2023/08/10 12:46:20;;;;;;;4.07;1.58;;;23.00;77.60;;;;;;6130383;23;20006;-73
2023/08/10 12:49:05;;;;;;;2.53;1.23;;;23.10;78.00;;;;;;6150608;23;20037;-74
2023/08/10 12:51:51;;;;;;;3.63;2.25;;;23.10;77.50;;;;;;6151453;23;20040;-72
2023/08/10 12:54:37;;;;;;;2.78;1.27;;;23.20;77.60;;;;;;6150404;23;20032;-72
2023/08/10 12:57:23;;;;;;;3.58;1.73;;;23.30;77.50;;;;;;6151053;23;20014;-73
2023/08/10 13:00:15;;;;;;;3.33;1.38;;;23.40;77.60;;;;;;6151930;23;20033;-72
2023/08/10 13:03:01;;;;;;;4.28;1.83;;;23.40;76.80;;;;;;6155280;23;20055;-68
2023/08/10 13:05:47;;;;;;;4.00;1.55;;;23.30;76.00;;;;;;6150943;23;20193;-67
2023/08/10 13:08:33;;;;;;;3.42;1.77;;;23.40;75.70;;;;;;6150004;23;20092;-67
2023/08/10 13:11:18;;;;;;;4.88;1.35;;;23.50;76.10;;;;;;6129999;23;20006;-67
2023/08/10 13:14:05;;;;;;;6.25;1.35;;;23.60;75.20;;;;;;6149754;23;20075;-67
2023/08/10 13:16:51;;;;;;;3.65;1.40;;;23.80;74.60;;;;;;6148600;23;20009;-67
2023/08/10 13:19:38;;;;;;;3.38;1.77;;;23.90;74.00;;;;;;6150205;23;20005;-69
2023/08/10 13:22:28;;;;;;;4.47;1.65;;;24.00;73.10;;;;;;6149815;23;20445;-68
2023/08/10 13:25:14;;;;;;;3.33;1.50;;;24.00;73.60;;;;;;6148106;23;20017;-68
2023/08/10 13:28:00;;;;;;;2.75;1.23;;;24.00;72.70;;;;;;6148979;23;20009;-67
2023/08/10 13:30:46;;;;;;;4.00;1.48;;;23.80;72.20;;;;;;6150691;23;20433;-67
2023/08/10 13:33:32;;;;;;;2.95;1.33;;;23.70;72.50;;;;;;6150562;23;20321;-66
2023/08/10 13:36:18;;;;;;;2.22;1.13;;;23.70;72.70;;;;;;6144924;23;20125;-67
2023/08/10 13:39:05;;;;;;;3.92;1.33;;;23.50;71.90;;;;;;6149921;23;20020;-69
2023/08/10 13:41:51;;;;;;;3.40;1.30;;;23.40;72.30;;;;;;6147775;23;20422;-66
2023/08/10 13:44:37;;;;;;;4.63;1.60;;;23.20;72.80;;;;;;6150767;23;20375;-67
2023/08/10 13:47:24;;;;;;;1.30;1.13;;;23.10;73.00;;;;;;6149361;23;20033;-66
2023/08/10 13:50:11;;;;;;;2.70;1.15;;;23.10;72.80;;;;;;6147155;23;20579;-66
2023/08/10 13:52:57;;;;;;;2.45;1.20;;;23.10;72.80;;;;;;6148120;23;20104;-67
2023/08/10 13:55:43;;;;;;;4.95;1.50;;;23.00;72.50;;;;;;6149805;23;20035;-66
2023/08/10 13:58:29;;;;;;;2.08;1.10;;;22.90;72.70;;;;;;6148793;23;20017;-66
2023/08/10 14:01:17;;;;;;;2.92;1.30;;;22.90;73.20;;;;;;6148660;23;20001;-66
2023/08/10 14:04:03;;;;;;;2.72;1.45;;;23.10;72.60;;;;;;6129901;23;20009;-67
2023/08/10 14:06:49;;;;;;;2.95;1.60;;;23.10;72.30;;;;;;6147231;23;20470;-67
2023/08/10 14:09:35;;;;;;;3.25;1.83;;;23.20;72.60;;;;;;6150437;23;20100;-67
2023/08/10 14:12:21;;;;;;;2.95;1.38;;;23.30;72.60;;;;;;6149281;23;20439;-67
2023/08/10 14:15:07;;;;;;;3.80;1.67;;;23.40;73.40;;;;;;6149774;23;20006;-67
2023/08/10 14:17:53;;;;;;;3.70;1.67;;;23.50;72.80;;;;;;6148316;23;20570;-67
2023/08/10 14:20:39;;;;;;;4.07;1.50;;;23.70;72.40;;;;;;6147741;23;20005;-68
2023/08/10 14:23:25;;;;;;;5.53;1.30;;;23.90;72.10;;;;;;6150128;23;20013;-68
2023/08/10 14:26:11;;;;;;;4.28;1.75;;;24.10;71.30;;;;;;6148627;23;20013;-67
2023/08/10 14:28:57;;;;;;;1.95;1.08;;;24.30;71.20;;;;;;6148997;23;20045;-68
2023/08/10 14:31:43;;;;;;;4.30;1.60;;;24.30;70.20;;;;;;6150158;23;20427;-67
2023/08/10 14:34:29;;;;;;;2.10;1.23;;;24.30;68.20;;;;;;6149523;23;20013;-68
2023/08/10 14:37:16;;;;;;;1.98;1.25;;;24.40;68.90;;;;;;6148392;23;20422;-68
2023/08/10 14:40:02;;;;;;;1.48;1.13;;;24.60;68.60;;;;;;6149055;23;20017;-67
2023/08/10 14:42:48;;;;;;;3.03;1.50;;;24.70;68.80;;;;;;6147422;23;20017;-69
2023/08/10 14:45:34;;;;;;;3.70;1.55;;;24.80;68.30;;;;;;6150320;23;20454;-68
2023/08/10 14:48:20;;;;;;;2.70;1.17;;;24.70;68.60;;;;;;6129883;23;20335;-67
2023/08/10 14:51:06;;;;;;;4.05;1.63;;;24.70;68.40;;;;;;6152193;23;20033;-68
2023/08/10 14:53:52;;;;;;;3.78;1.60;;;24.50;67.50;;;;;;6149521;23;20036;-67
2023/08/10 14:56:38;;;;;;;3.60;1.40;;;24.30;67.80;;;;;;6128824;23;20002;-67
2023/08/10 14:59:25;;;;;;;4.55;1.48;;;24.10;67.70;;;;;;6130661;23;20029;-68
2023/08/10 15:02:11;;;;;;;2.33;1.20;;;24.00;68.20;;;;;;6151996;23;20020;-68
2023/08/10 15:04:57;;;;;;;2.85;1.17;;;24.10;67.60;;;;;;6148395;23;20530;-67
2023/08/10 15:07:44;;;;;;;2.28;1.40;;;24.00;67.70;;;;;;6151886;23;20002;-67
2023/08/10 15:10:30;;;;;;;1.85;1.25;;;23.90;68.00;;;;;;6148023;23;20092;-68
2023/08/10 15:13:16;;;;;;;2.30;1.27;;;23.90;68.40;;;;;;6150612;23;20033;-68
2023/08/10 15:16:03;;;;;;;2.28;1.70;;;24.00;68.00;;;;;;6150581;23;20009;-68
2023/08/10 15:18:50;;;;;;;2.92;1.40;;;23.90;67.20;;;;;;6148817;23;20629;-67
2023/08/10 15:21:36;;;;;;;2.40;1.48;;;23.60;67.30;;;;;;6148624;23;20012;-67
2023/08/10 15:24:22;;;;;;;1.90;1.15;;;23.50;67.90;;;;;;6151186;23;20080;-68
2023/08/10 15:27:08;;;;;;;4.97;1.48;;;23.60;67.90;;;;;;6151543;23;20057;-68
2023/08/10 15:29:54;;;;;;;4.13;1.65;;;23.80;68.70;;;;;;6151380;23;20016;-67
2023/08/10 15:32:40;;;;;;;7.35;1.67;;;23.80;68.30;;;;;;6150522;23;20455;-68
2023/08/10 15:35:26;;;;;;;3.58;1.85;;;23.70;68.30;;;;;;6151148;23;20010;-68
2023/08/10 15:38:12;;;;;;;2.92;1.63;;;23.70;68.00;;;;;;6151226;23;20068;-68
2023/08/10 15:40:57;;;;;;;3.20;1.38;;;23.60;67.70;;;;;;6129252;23;20013;-68
2023/08/10 15:43:43;;;;;;;6.55;1.05;;;23.70;67.90;;;;;;6149905;23;20029;-67
2023/08/10 15:46:29;;;;;;;1.90;1.27;;;23.70;67.30;;;;;;6150561;23;20009;-68
2023/08/10 15:49:15;;;;;;;6.13;2.10;;;23.60;67.80;;;;;;6151119;23;20409;-68
2023/08/10 15:52:02;;;;;;;4.95;1.67;;;23.80;67.60;;;;;;6130318;23;20001;-67
2023/08/10 15:54:48;;;;;;;2.30;1.52;;;23.70;67.70;;;;;;6130765;23;20016;-67
2023/08/10 15:57:34;;;;;;;2.97;1.30;;;23.70;67.50;;;;;;6150693;23;20021;-68
2023/08/10 16:00:20;;;;;;;2.40;1.40;;;23.60;68.00;;;;;;6149876;23;20001;-68
2023/08/10 16:03:06;;;;;;;4.13;1.88;;;23.50;68.00;;;;;;6129593;23;20029;-67
2023/08/10 16:05:52;;;;;;;2.55;1.52;;;23.40;67.70;;;;;;6150751;23;20359;-68
2023/08/10 16:08:38;;;;;;;5.00;1.58;;;23.20;67.70;;;;;;6151631;23;20027;-67
2023/08/10 16:11:24;;;;;;;2.92;1.52;;;23.10;67.90;;;;;;6128898;23;20076;-68
2023/08/10 16:14:10;;;;;;;2.92;1.55;;;23.20;68.30;;;;;;6150787;23;20206;-67
2023/08/10 16:16:55;;;;;;;3.20;1.38;;;23.40;68.00;;;;;;6147949;23;20013;-68
2023/08/10 16:19:41;;;;;;;3.28;1.42;;;23.60;68.20;;;;;;6128655;23;20010;-67
2023/08/10 16:22:30;;;;;;;4.72;1.10;;;23.70;68.30;;;;;;6151376;23;20451;-68
2023/08/10 16:25:16;;;;;;;2.40;1.30;;;23.90;67.30;;;;;;6150075;23;20559;-68
2023/08/10 16:28:03;;;;;;;3.92;1.20;;;24.00;67.20;;;;;;6150331;23;20112;-68
2023/08/10 16:30:49;;;;;;;2.03;1.15;;;24.10;67.70;;;;;;6147857;23;20432;-68
2023/08/10 16:33:34;;;;;;;4.35;1.73;;;24.20;67.30;;;;;;6151216;23;20009;-68
2023/08/10 16:36:21;;;;;;;1.65;1.17;;;24.30;67.00;;;;;;6150731;23;20020;-68
2023/08/10 16:39:06;;;;;;;2.60;1.10;;;24.30;66.30;;;;;;6149421;23;20351;-67
2023/08/10 16:41:52;;;;;;;1.73;1.20;;;24.30;65.80;;;;;;6150362;23;20009;-68
2023/08/10 16:44:38;;;;;;;7.20;2.17;;;24.30;66.00;;;;;;6128471;23;20017;-67
2023/08/10 16:47:24;;;;;;;3.05;1.35;;;24.40;65.90;;;;;;6151454;23;20002;-67
2023/08/10 16:50:11;;;;;;;3.42;1.70;;;24.40;65.90;;;;;;6150291;23;20014;-68
2023/08/10 16:52:57;;;;;;;1.60;1.00;;;24.40;65.90;;;;;;6149468;23;20353;-68
2023/08/10 16:55:43;;;;;;;4.65;1.20;;;24.40;66.40;;;;;;6148010;23;20016;-68
2023/08/10 16:58:31;;;;;;;5.85;1.65;;;24.40;66.40;;;;;;6150196;23;20351;-68
2023/08/10 17:01:17;;;;;;;3.40;1.60;;;24.40;66.60;;;;;;6148637;23;20011;-68
2023/08/10 17:04:03;;;;;;;2.50;1.35;;;24.40;66.30;;;;;;6150326;23;20498;-68
2023/08/10 17:06:49;;;;;;;4.82;2.10;;;24.40;66.40;;;;;;6147161;23;20037;-68
2023/08/10 17:09:35;;;;;;;2.40;1.40;;;24.30;65.80;;;;;;6151450;23;20076;-68
2023/08/10 17:12:21;;;;;;;2.72;1.60;;;24.30;65.90;;;;;;6148906;23;20057;-68
2023/08/10 17:15:07;;;;;;;9.05;2.03;;;24.30;66.10;;;;;;6148687;23;20006;-68
2023/08/10 17:17:53;;;;;;;2.72;1.65;;;24.10;65.90;;;;;;6148381;23;20018;-68
2023/08/10 17:20:40;;;;;;;3.67;1.98;;;24.00;65.90;;;;;;6150324;23;20008;-68
2023/08/10 17:23:25;;;;;;;4.13;1.67;;;23.90;66.00;;;;;;6147914;23;20016;-68
2023/08/10 17:26:11;;;;;;;3.38;1.55;;;23.80;65.90;;;;;;6150180;23;20088;-68
2023/08/10 17:28:57;;;;;;;3.88;1.60;;;23.80;66.00;;;;;;6148672;23;20012;-68
2023/08/10 17:31:43;;;;;;;2.80;1.73;;;23.70;66.30;;;;;;6148474;23;20089;-68
2023/08/10 17:34:29;;;;;;;2.28;1.30;;;23.60;66.50;;;;;;6150239;23;20013;-67
2023/08/10 17:37:15;;;;;;;2.70;1.67;;;23.50;66.80;;;;;;6150857;23;20017;-67
2023/08/10 17:40:01;;;;;;;6.53;2.38;;;23.40;66.40;;;;;;6150534;23;20033;-68
2023/08/10 17:42:47;;;;;;;3.17;1.63;;;23.20;66.50;;;;;;6130519;23;20029;-68
2023/08/10 17:45:33;;;;;;;5.97;1.65;;;23.10;66.70;;;;;;6151257;23;20061;-68
2023/08/10 17:48:19;;;;;;;2.83;1.45;;;23.00;66.90;;;;;;6151205;23;20016;-66
2023/08/10 17:51:05;;;;;;;4.78;1.70;;;22.90;66.90;;;;;;6151440;23;20176;-68
2023/08/10 17:53:51;;;;;;;7.30;1.98;;;22.80;67.00;;;;;;6150356;23;20021;-69
2023/08/10 17:56:37;;;;;;;3.60;2.05;;;22.70;67.40;;;;;;6151628;23;20025;-68
2023/08/10 17:59:23;;;;;;;2.40;1.52;;;22.60;67.10;;;;;;6150397;23;20052;-68
2023/08/10 18:02:09;;;;;;;5.75;2.40;;;22.50;67.60;;;;;;6150831;23;20005;-68
2023/08/10 18:04:55;;;;;;;2.53;1.50;;;22.40;67.70;;;;;;6150062;23;20013;-68
2023/08/10 18:07:41;;;;;;;3.95;1.95;;;22.40;67.90;;;;;;6150513;23;20009;-69
2023/08/10 18:10:27;;;;;;;3.33;1.85;;;22.30;68.10;;;;;;6150598;23;20437;-67
2023/08/10 18:13:13;;;;;;;6.47;2.20;;;22.20;68.20;;;;;;6150257;23;20017;-67
2023/08/10 18:15:59;;;;;;;4.28;1.77;;;22.10;68.60;;;;;;6148866;23;20006;-68
2023/08/10 18:18:45;;;;;;;4.20;1.90;;;22.10;68.80;;;;;;6150864;23;20025;-67
2023/08/10 18:21:31;;;;;;;3.55;1.90;;;22.00;68.90;;;;;;6151398;23;20015;-69
2023/08/10 18:24:17;;;;;;;4.43;2.08;;;21.90;69.30;;;;;;6154156;23;20020;-69
2023/08/10 18:27:05;;;;;;;6.13;1.80;;;21.90;69.30;;;;;;6131437;23;20009;-67
2023/08/10 18:29:51;;;;;;;4.57;2.20;;;21.80;69.40;;;;;;6150204;23;20020;-68
2023/08/10 18:32:37;;;;;;;3.55;2.00;;;21.70;69.60;;;;;;6151787;23;20005;-68
2023/08/10 18:35:23;;;;;;;4.97;2.30;;;21.70;70.00;;;;;;6152368;23;20006;-68
2023/08/10 18:38:09;;;;;;;6.03;2.60;;;21.60;70.10;;;;;;6152985;23;20104;-68
2023/08/10 18:40:55;;;;;;;3.97;2.20;;;21.60;70.40;;;;;;6152787;23;20359;-68
2023/08/10 18:43:41;;;;;;;7.25;3.08;;;21.50;71.00;;;;;;6130160;23;20072;-68
2023/08/10 18:46:27;;;;;;;4.30;2.53;;;21.40;71.10;;;;;;6150428;23;20020;-68
2023/08/10 18:49:13;;;;;;;7.15;2.58;;;21.30;71.10;;;;;;6151111;23;20041;-69
2023/08/10 18:51:59;;;;;;;5.30;3.05;;;21.20;71.10;;;;;;6151626;23;20005;-68
2023/08/10 18:54:45;;;;;;;7.35;2.85;;;21.10;71.50;;;;;;6152817;23;20005;-68
2023/08/10 18:57:31;;;;;;;6.22;2.70;;;21.00;71.80;;;;;;6152656;23;20021;-68
2023/08/10 19:00:18;;;;;;;5.68;3.22;;;21.00;72.10;;;;;;6129399;23;20001;-68
2023/08/10 19:03:04;;;;;;;6.05;3.10;;;20.90;72.80;;;;;;6150516;23;20076;-68
2023/08/10 19:05:50;;;;;;;6.30;3.47;;;20.80;73.20;;;;;;6152696;23;20031;-68
2023/08/10 19:08:36;;;;;;;6.78;3.58;;;20.80;73.70;;;;;;6152435;23;20013;-68
2023/08/10 19:11:22;;;;;;;5.07;2.80;;;20.70;73.70;;;;;;6152383;23;20029;-68
2023/08/10 19:14:08;;;;;;;6.32;2.63;;;20.60;73.90;;;;;;6152030;23;20348;-68
2023/08/10 19:16:53;;;;;;;5.72;2.65;;;20.60;74.00;;;;;;6152519;23;20464;-69
2023/08/10 19:19:39;;;;;;;16.25;4.68;;;20.50;74.30;;;;;;6150939;23;20014;-69
2023/08/10 19:22:25;;;;;;;7.90;4.15;;;20.40;74.90;;;;;;6152935;23;20029;-69
2023/08/10 19:25:11;;;;;;;6.18;3.40;;;20.40;75.20;;;;;;6152677;23;20013;-68
2023/08/10 19:27:57;;;;;;;10.07;4.22;;;20.30;75.60;;;;;;6151184;23;20076;-69
2023/08/10 19:30:43;;;;;;;9.90;4.50;;;20.30;75.80;;;;;;6151495;23;20009;-69
2023/08/10 19:33:29;;;;;;;8.05;4.97;;;20.10;75.80;;;;;;6152089;23;20006;-69
2023/08/10 19:36:15;;;;;;;9.07;3.97;;;20.10;76.30;;;;;;6152391;23;20009;-70
2023/08/10 19:39:01;;;;;;;7.72;4.05;;;20.00;76.80;;;;;;6151976;23;20065;-68
2023/08/10 19:41:47;;;;;;;6.45;3.70;;;20.00;77.10;;;;;;6150811;23;20002;-69
2023/08/10 19:44:33;;;;;;;8.52;4.10;;;19.90;77.50;;;;;;6152590;23;20009;-68
2023/08/10 19:47:20;;;;;;;8.77;4.35;;;19.80;78.00;;;;;;6152400;23;20009;-68
2023/08/10 19:50:06;;;;;;;8.07;4.82;;;19.70;78.70;;;;;;6150782;23;20037;-68
2023/08/10 19:52:52;;;;;;;9.90;4.60;;;19.70;79.50;;;;;;6150215;23;20078;-68
2023/08/10 19:55:38;;;;;;;8.98;4.72;;;19.70;79.30;;;;;;6131506;23;20002;-69
2023/08/10 19:58:26;;;;;;;7.97;4.65;;;19.60;79.90;;;;;;6152517;23;20411;-68
2023/08/10 20:01:15;;;;;;;9.10;4.93;;;19.50;80.30;;;;;;6149571;23;20033;-69
2023/08/10 20:04:01;;;;;;;10.70;4.90;;;19.50;80.80;;;;;;6151205;23;20010;-69
2023/08/10 20:06:47;;;;;;;7.25;4.32;;;19.40;81.10;;;;;;6151342;23;20012;-68
2023/08/10 20:09:33;;;;;;;9.40;4.70;;;19.40;81.40;;;;;;6150572;23;20013;-69
2023/08/10 20:12:19;;;;;;;7.60;4.82;;;19.30;81.70;;;;;;6148142;23;20364;-69
2023/08/10 20:15:07;;;;;;;10.15;5.10;;;19.30;82.00;;;;;;6151503;23;20213;-68
2023/08/10 20:17:53;;;;;;;7.43;5.22;;;19.20;82.60;;;;;;6150081;23;20025;-69
2023/08/10 20:20:40;;;;;;;12.43;4.72;;;19.10;82.70;;;;;;6150697;23;20005;-69
2023/08/10 20:23:27;;;;;;;9.05;5.55;;;19.10;83.10;;;;;;6147622;23;20009;-69
2023/08/10 20:26:13;;;;;;;7.97;4.35;;;19.00;83.40;;;;;;6146549;23;20032;-69
2023/08/10 20:28:59;;;;;;;10.55;5.03;;;19.00;83.80;;;;;;6148912;23;20010;-69
2023/08/10 20:31:45;;;;;;;8.75;4.78;;;19.00;84.40;;;;;;6149059;23;20006;-68
2023/08/10 20:34:31;;;;;;;12.52;5.53;;;18.90;84.70;;;;;;6150259;23;20009;-70
2023/08/10 20:37:17;;;;;;;9.13;4.63;;;18.90;84.90;;;;;;6151072;23;20057;-69
2023/08/10 20:40:04;;;;;;;11.88;5.28;;;18.80;85.10;;;;;;6149613;23;20016;-69
2023/08/10 20:42:50;;;;;;;7.90;4.68;;;18.80;85.50;;;;;;6147757;23;20060;-70
2023/08/10 20:45:36;;;;;;;7.63;4.45;;;18.70;85.80;;;;;;6148905;23;20009;-68
2023/08/10 20:48:22;;;;;;;13.73;5.28;;;18.70;86.20;;;;;;6150076;23;20376;-69
2023/08/10 20:51:09;;;;;;;14.95;5.18;;;18.70;86.70;;;;;;6149378;23;20020;-69
2023/08/10 20:53:56;;;;;;;8.25;4.72;;;18.60;86.90;;;;;;6149520;23;20009;-69
2023/08/10 20:56:42;;;;;;;7.40;4.15;;;18.60;87.30;;;;;;6148337;23;20068;-69
2023/08/10 20:59:33;;;;;;;10.02;4.72;;;18.60;87.70;;;;;;6150167;23;20328;-69
2023/08/10 21:02:19;;;;;;;8.23;4.30;;;18.50;87.90;;;;;;6150032;23;20016;-69
2023/08/10 21:05:06;;;;;;;8.32;4.57;;;18.40;88.20;;;;;;6151970;23;20001;-69
2023/08/10 21:07:52;;;;;;;11.13;5.20;;;18.40;88.60;;;;;;6154372;23;20024;-69
2023/08/10 21:10:39;;;;;;;10.52;4.20;;;18.40;88.90;;;;;;6149033;23;20005;-69
2023/08/10 21:13:25;;;;;;;8.48;4.93;;;18.30;89.10;;;;;;6149219;23;20044;-69
2023/08/10 21:16:11;;;;;;;7.80;4.25;;;18.30;89.30;;;;;;6147093;23;20005;-69
2023/08/10 21:18:57;;;;;;;9.13;4.15;;;18.30;89.40;;;;;;6150729;23;20013;-69
2023/08/10 21:21:43;;;;;;;7.15;4.30;;;18.20;89.60;;;;;;6149286;23;20012;-69
2023/08/10 21:24:29;;;;;;;8.23;4.63;;;18.20;89.90;;;;;;6150532;23;20335;-69
2023/08/10 21:27:15;;;;;;;10.55;5.18;;;18.10;90.00;;;;;;6149810;23;20016;-70
2023/08/10 21:30:01;;;;;;;10.50;4.72;;;18.10;90.10;;;;;;6150058;23;20021;-70
2023/08/10 21:32:47;;;;;;;9.05;4.22;;;18.10;90.30;;;;;;6148771;23;20085;-70
2023/08/10 21:35:33;;;;;;;8.95;4.47;;;18.10;90.40;;;;;;6149079;23;20037;-70
2023/08/10 21:38:19;;;;;;;7.38;4.95;;;18.00;90.60;;;;;;6148741;23;20021;-70
2023/08/10 21:41:05;;;;;;;10.07;5.00;;;18.00;90.70;;;;;;6149917;23;20005;-69
2023/08/10 21:43:51;;;;;;;9.35;5.13;;;17.90;90.70;;;;;;6150666;23;20022;-69
2023/08/10 21:46:37;;;;;;;8.88;4.95;;;17.90;90.80;;;;;;6149869;23;20005;-70
2023/08/10 21:49:22;;;;;;;11.60;5.20;;;17.90;90.70;;;;;;6150889;23;20474;-70
2023/08/10 21:52:08;;;;;;;8.75;4.47;;;17.80;91.00;;;;;;6129639;23;20262;-70
2023/08/10 21:54:54;;;;;;;8.45;5.22;;;17.80;90.70;;;;;;6148353;23;20021;-70
2023/08/10 21:57:40;;;;;;;9.70;5.78;;;17.80;90.90;;;;;;6150963;23;20028;-70
2023/08/10 22:00:27;;;;;;;11.52;6.05;;;17.70;91.10;;;;;;6152587;23;20060;-70
2023/08/10 22:03:14;;;;;;;11.88;5.28;;;17.70;91.40;;;;;;6154141;23;20427;-70
2023/08/10 22:06:00;;;;;;;9.40;4.85;;;17.70;91.60;;;;;;6152773;23;20448;-70
2023/08/10 22:08:46;;;;;;;11.35;4.97;;;17.60;91.80;;;;;;6153378;23;20064;-70
2023/08/10 22:11:32;;;;;;;8.55;4.82;;;17.60;91.90;;;;;;6152390;23;20002;-73
2023/08/10 22:14:19;;;;;;;9.20;5.05;;;17.60;92.10;;;;;;6150490;23;20044;-69
2023/08/10 22:17:04;;;;;;;8.98;5.47;;;17.50;92.20;;;;;;6151214;23;20085;-69
2023/08/10 22:19:51;;;;;;;11.60;5.03;;;17.50;92.20;;;;;;6151507;23;20040;-68
2023/08/10 22:22:40;;;;;;;9.30;5.72;;;17.40;92.20;;;;;;6152193;23;20064;-67
2023/08/10 22:25:26;;;;;;;11.23;6.10;;;17.40;92.30;;;;;;6149176;23;20024;-68
2023/08/10 22:28:12;;;;;;;11.80;5.50;;;17.40;92.30;;;;;;6152501;23;20041;-68
2023/08/10 22:30:58;;;;;;;9.45;5.22;;;17.40;92.40;;;;;;6149034;23;20009;-68
2023/08/10 22:33:44;;;;;;;9.95;5.25;;;17.30;92.60;;;;;;6153187;23;20084;-68
2023/08/10 22:36:30;;;;;;;12.38;5.32;;;17.30;92.80;;;;;;6151467;23;20017;-68
2023/08/10 22:39:17;;;;;;;11.52;4.93;;;17.30;92.90;;;;;;6131754;23;20045;-69
2023/08/10 22:42:03;;;;;;;9.23;5.88;;;17.20;93.00;;;;;;6149321;23;20025;-68
2023/08/10 22:44:49;;;;;;;10.82;5.78;;;17.20;93.20;;;;;;6149474;23;20048;-68
2023/08/10 22:47:35;;;;;;;8.80;5.00;;;17.20;93.40;;;;;;6152347;23;20093;-69
2023/08/10 22:50:21;;;;;;;9.07;5.13;;;17.10;93.50;;;;;;6151612;23;20398;-68
2023/08/10 22:53:07;;;;;;;9.63;5.22;;;17.10;93.60;;;;;;6151342;23;19997;-69
2023/08/10 22:55:53;;;;;;;8.02;5.38;;;17.10;93.80;;;;;;6151389;23;20013;-68
2023/08/10 22:58:39;;;;;;;13.23;6.13;;;17.00;93.90;;;;;;6152790;23;20014;-69
2023/08/10 23:01:28;;;;;;;12.00;5.90;;;17.00;94.00;;;;;;6150786;23;20348;-70
2023/08/10 23:04:14;;;;;;;13.88;6.10;;;16.90;94.00;;;;;;6152139;23;20016;-69
2023/08/10 23:07:02;;;;;;;9.18;5.70;;;16.90;94.10;;;;;;6151765;23;20309;-69
2023/08/10 23:09:49;;;;;;;11.60;6.03;;;16.90;94.20;;;;;;6149817;23;20059;-69
2023/08/10 23:12:34;;;;;;;10.50;5.93;;;16.90;94.10;;;;;;6150600;23;20001;-70
2023/08/10 23:15:20;;;;;;;11.27;5.53;;;16.80;94.10;;;;;;6128590;23;20321;-70
2023/08/10 23:18:10;;;;;;;10.25;5.55;;;16.80;94.40;;;;;;6151533;23;20092;-69
2023/08/10 23:20:57;;;;;;;11.52;6.25;;;16.80;94.40;;;;;;6151240;23;20088;-70
2023/08/10 23:23:43;;;;;;;8.65;5.75;;;16.70;94.70;;;;;;6131288;23;20021;-70
2023/08/10 23:26:29;;;;;;;9.70;5.50;;;16.70;94.80;;;;;;6150124;23;20084;-70
2023/08/10 23:29:16;;;;;;;9.48;6.32;;;16.70;94.90;;;;;;6150986;23;20014;-69
2023/08/10 23:32:03;;;;;;;9.95;6.07;;;16.60;94.90;;;;;;6152128;23;20071;-69
2023/08/10 23:34:49;;;;;;;10.70;6.55;;;16.60;95.00;;;;;;6131109;23;20001;-69
2023/08/10 23:37:38;;;;;;;13.55;7.57;;;16.60;95.10;;;;;;6151067;23;20021;-69
2023/08/10 23:40:24;;;;;;;10.43;6.35;;;16.60;95.30;;;;;;6149902;23;20495;-69
2023/08/10 23:43:10;;;;;;;8.48;5.22;;;16.60;95.40;;;;;;6150428;23;20033;-69
2023/08/10 23:45:56;;;;;;;11.27;6.72;;;16.50;95.50;;;;;;6151517;23;20493;-69
2023/08/10 23:48:42;;;;;;;11.43;6.13;;;16.50;95.60;;;;;;6152252;23;20010;-69
2023/08/10 23:51:30;;;;;;;10.98;7.05;;;16.50;95.60;;;;;;6150208;23;20036;-69
2023/08/10 23:54:16;;;;;;;12.32;6.20;;;16.50;95.70;;;;;;6131448;23;20347;-70
2023/08/10 23:57:03;;;;;;;13.07;6.78;;;16.50;95.80;;;;;;6149701;23;20005;-70
2023/08/10 23:59:49;;;;;;;10.93;6.40;;;16.40;95.90;;;;;;6152139;23;20065;-70
